Time;durP1;ratioP1;P1;durP2;ratioP2;P2;SDS_P1;SDS_P2;PMS_P1;PMS_P2;Temp;Humidity;BMP_temperature;BMP_pressure;BME280_temperature;BME280_humidity;BME280_pressure;Samples;Min_cycle;Max_cycle;Signal;HPM_P1;HPM_P2
2021/03/22 00:00:53;;;;;;;30.02;14.43;;;0.00;99.90;;;;;;5052063;28;20033;-75
2021/03/22 00:03:20;;;;;;;21.58;11.75;;;-0.10;99.90;;;;;;5053435;28;20024;-76
2021/03/22 00:05:46;;;;;;;28.35;13.27;;;-0.10;99.90;;;;;;5051986;28;20058;-76
2021/03/22 00:08:12;;;;;;;24.42;13.85;;;-0.10;99.90;;;;;;5053242;28;20040;-75
2021/03/22 00:10:42;;;;;;;30.45;13.15;;;-0.10;99.90;;;;;;5053289;28;20025;-76
2021/03/22 00:13:08;;;;;;;20.38;10.88;;;-0.20;99.90;;;;;;5053235;28;20017;-76
2021/03/22 00:15:36;;;;;;;23.77;11.35;;;-0.20;99.90;;;;;;5053192;28;20033;-77
2021/03/22 00:18:05;;;;;;;24.40;11.77;;;-0.20;99.90;;;;;;5051810;28;20078;-76
2021/03/22 00:20:30;;;;;;;23.15;10.45;;;-0.20;99.90;;;;;;5051823;28;20071;-76
2021/03/22 00:22:56;;;;;;;20.00;11.60;;;-0.20;99.90;;;;;;5051287;28;20572;-76
2021/03/22 00:25:22;;;;;;;23.88;11.55;;;-0.30;99.90;;;;;;5052792;28;20044;-78
2021/03/22 00:27:48;;;;;;;21.52;10.50;;;-0.30;99.90;;;;;;5052942;28;20494;-79
2021/03/22 00:30:23;;;;;;;19.75;9.63;;;-0.30;99.90;;;;;;5052867;28;20386;-78
2021/03/22 00:32:49;;;;;;;23.30;12.07;;;-0.30;99.90;;;;;;5051686;28;20032;-78
2021/03/22 00:35:15;;;;;;;17.30;9.63;;;-0.40;99.90;;;;;;5052899;28;20032;-79
2021/03/22 00:37:40;;;;;;;15.48;9.93;;;-0.30;99.90;;;;;;5051684;28;20021;-78
2021/03/22 00:40:07;;;;;;;18.27;9.45;;;-0.40;99.90;;;;;;5052739;28;20529;-78
2021/03/22 00:42:32;;;;;;;15.95;10.02;;;-0.40;99.90;;;;;;5051589;28;20094;-78
2021/03/22 00:44:58;;;;;;;20.33;9.82;;;-0.50;99.90;;;;;;5051486;28;20470;-79
2021/03/22 00:47:24;;;;;;;25.67;11.23;;;-0.60;99.90;;;;;;5051450;28;20047;-79
2021/03/22 00:49:49;;;;;;;18.27;9.52;;;-0.50;99.90;;;;;;5051529;28;20025;-79
2021/03/22 00:52:15;;;;;;;16.90;9.45;;;-0.50;99.90;;;;;;5051454;28;20359;-78
2021/03/22 00:54:41;;;;;;;16.48;8.25;;;-0.60;99.90;;;;;;5051245;28;20033;-79
2021/03/22 00:57:08;;;;;;;18.92;8.93;;;-0.70;99.90;;;;;;5051234;28;20069;-79
2021/03/22 00:59:35;;;;;;;19.92;9.18;;;-0.70;99.90;;;;;;5051356;28;20494;-79
2021/03/22 01:02:01;;;;;;;21.48;10.10;;;-0.70;99.90;;;;;;5052396;28;20021;-79
2021/03/22 01:04:27;;;;;;;13.35;7.82;;;-0.70;99.90;;;;;;5050968;28;20032;-79
2021/03/22 01:06:52;;;;;;;16.98;9.85;;;-0.70;99.90;;;;;;5052654;28;20025;-78
2021/03/22 01:09:18;;;;;;;20.60;10.02;;;-0.80;99.90;;;;;;5052440;28;20060;-79
2021/03/22 01:11:44;;;;;;;18.13;9.57;;;-0.80;99.90;;;;;;5052608;28;20017;-78
2021/03/22 01:14:10;;;;;;;18.73;10.40;;;-0.80;99.90;;;;;;5051128;28;20447;-78
2021/03/22 01:16:37;;;;;;;19.13;9.80;;;-0.80;99.90;;;;;;5052647;28;20021;-78
2021/03/22 01:19:19;;;;;;;15.90;9.52;;;-0.90;99.90;;;;;;5052373;28;20044;-78
2021/03/22 01:21:48;;;;;;;21.55;9.13;;;-0.90;99.90;;;;;;5052582;28;20033;-78
2021/03/22 01:24:15;;;;;;;12.82;8.90;;;-0.90;99.90;;;;;;5050830;28;20051;-78
2021/03/22 01:26:42;;;;;;;14.18;8.02;;;-0.90;99.90;;;;;;5052358;28;20099;-78
2021/03/22 01:29:12;;;;;;;16.27;7.82;;;-0.90;99.90;;;;;;5050953;28;20411;-77
2021/03/22 01:31:38;;;;;;;16.40;8.10;;;-0.90;99.90;;;;;;5052744;28;20025;-78
2021/03/22 01:34:04;;;;;;;17.00;6.97;;;-1.00;99.90;;;;;;5052311;28;20025;-77
2021/03/22 01:36:31;;;;;;;13.43;8.18;;;-1.00;99.90;;;;;;5054786;28;20017;-79
2021/03/22 01:39:12;;;;;;;16.88;8.02;;;-1.00;99.90;;;;;;5056076;28;20108;-78
2021/03/22 01:42:05;;;;;;;15.40;8.07;;;-1.00;99.90;;;;;;5055870;28;20083;-78
2021/03/22 01:44:34;;;;;;;17.05;8.60;;;-0.90;99.90;;;;;;5054759;28;20116;-79
2021/03/22 01:47:19;;;;;;;16.08;8.02;;;-1.00;99.90;;;;;;5055917;28;20111;-78
2021/03/22 01:50:00;;;;;;;14.02;8.30;;;-1.00;99.90;;;;;;5054578;28;20048;-79
2021/03/22 01:52:27;;;;;;;12.90;7.65;;;-1.00;99.90;;;;;;5055607;28;20029;-79
2021/03/22 01:54:54;;;;;;;14.55;8.88;;;-1.00;99.90;;;;;;5054471;28;20029;-79
2021/03/22 01:57:29;;;;;;;13.05;7.45;;;-1.00;99.90;;;;;;5055728;28;20043;-79
2021/03/22 02:00:14;;;;;;;12.90;7.80;;;-1.10;99.90;;;;;;5054409;28;20072;-79
2021/03/22 02:02:43;;;;;;;14.02;7.68;;;-1.10;99.90;;;;;;5054012;28;20017;-79
2021/03/22 02:05:12;;;;;;;21.02;6.80;;;-1.20;99.90;;;;;;5055594;28;20042;-79
2021/03/22 02:07:38;;;;;;;14.10;7.93;;;-1.10;99.90;;;;;;5054217;28;20546;-79
2021/03/22 02:10:06;;;;;;;12.25;7.50;;;-1.20;99.90;;;;;;5054019;28;20024;-79
2021/03/22 02:12:31;;;;;;;17.42;8.35;;;-1.20;99.90;;;;;;5054189;28;20028;-79
2021/03/22 02:14:57;;;;;;;14.40;9.15;;;-1.20;99.90;;;;;;5053795;28;20028;-79
2021/03/22 02:17:41;;;;;;;14.77;8.15;;;-1.20;99.90;;;;;;5054048;28;20021;-79
2021/03/22 02:20:45;;;;;;;11.75;7.15;;;-1.30;99.90;;;;;;5054039;28;20040;-79
2021/03/22 02:23:41;;;;;;;13.10;7.97;;;-1.30;99.90;;;;;;5055343;28;20386;-78
2021/03/22 02:26:28;;;;;;;15.35;7.20;;;-1.30;99.90;;;;;;5053955;28;20029;-79
2021/03/22 02:29:29;;;;;;;18.40;8.77;;;-1.30;99.90;;;;;;5053749;28;20067;-79
2021/03/22 02:32:11;;;;;;;15.90;8.80;;;-1.40;99.90;;;;;;5046262;28;20393;-79
2021/03/22 02:35:05;;;;;;;18.70;8.65;;;-1.30;99.90;;;;;;5053866;28;20040;-79
2021/03/22 02:37:36;;;;;;;16.73;8.55;;;-1.40;99.90;;;;;;5053768;28;20021;-78
2021/03/22 02:40:16;;;;;;;13.45;7.30;;;-1.30;99.90;;;;;;5054457;28;20021;-78
2021/03/22 02:42:45;;;;;;;13.13;7.75;;;-1.40;99.90;;;;;;5053753;28;20048;-78
2021/03/22 02:45:17;;;;;;;17.58;8.77;;;-1.40;99.90;;;;;;5054697;28;20017;-79
2021/03/22 02:47:43;;;;;;;11.82;7.50;;;-1.40;99.90;;;;;;5053365;28;20021;-78
2021/03/22 02:50:16;;;;;;;14.82;7.05;;;-1.40;99.90;;;;;;5053481;28;20036;-78
2021/03/22 02:53:02;;;;;;;10.80;6.45;;;-1.50;99.90;;;;;;5053557;28;20032;-79
2021/03/22 02:56:00;;;;;;;15.68;7.00;;;-1.50;99.90;;;;;;5053472;28;20021;-79
2021/03/22 02:58:48;;;;;;;16.35;6.97;;;-1.50;99.90;;;;;;5039376;28;20029;-79
2021/03/22 03:01:49;;;;;;;11.48;6.95;;;-1.50;99.90;;;;;;5054630;28;20024;-79
2021/03/22 03:04:16;;;;;;;15.93;9.57;;;-1.50;99.90;;;;;;5042874;28;20037;-79
2021/03/22 03:06:55;;;;;;;13.98;7.88;;;-1.50;99.90;;;;;;5054527;28;20032;-79
2021/03/22 03:09:25;;;;;;;14.40;7.50;;;-1.50;99.90;;;;;;5052786;28;20045;-78
2021/03/22 03:11:51;;;;;;;12.60;8.43;;;-1.60;99.90;;;;;;5054413;28;20017;-79
2021/03/22 03:14:18;;;;;;;19.73;8.43;;;-1.70;99.90;;;;;;5053004;28;20108;-79
2021/03/22 03:16:44;;;;;;;14.07;7.63;;;-1.70;99.90;;;;;;5053041;28;20017;-79
2021/03/22 03:19:10;;;;;;;14.55;7.45;;;-1.70;99.90;;;;;;5052913;28;20406;-79
2021/03/22 03:21:36;;;;;;;13.80;7.82;;;-1.70;99.90;;;;;;5052965;28;20066;-79
2021/03/22 03:24:05;;;;;;;16.58;8.10;;;-1.70;99.90;;;;;;5052787;28;20029;-79
2021/03/22 03:26:30;;;;;;;13.63;7.10;;;-1.80;99.90;;;;;;5053999;28;20497;-79
2021/03/22 03:28:56;;;;;;;12.32;7.22;;;-1.80;99.90;;;;;;5053468;28;20029;-79
2021/03/22 03:31:21;;;;;;;13.75;7.28;;;-1.80;99.90;;;;;;5052752;28;20021;-79
2021/03/22 03:33:47;;;;;;;12.77;7.70;;;-1.80;99.90;;;;;;5053905;28;20100;-78
2021/03/22 03:36:13;;;;;;;12.82;7.93;;;-1.90;99.90;;;;;;5053877;28;20128;-79
2021/03/22 03:38:39;;;;;;;9.70;6.75;;;-2.00;99.90;;;;;;5053315;28;20047;-79
2021/03/22 03:41:04;;;;;;;15.95;8.15;;;-2.00;99.90;;;;;;5053759;28;20497;-79
2021/03/22 03:43:30;;;;;;;10.93;6.78;;;-2.00;99.90;;;;;;5052484;28;20020;-78
2021/03/22 03:45:56;;;;;;;19.42;7.72;;;-2.10;99.90;;;;;;5052453;28;20035;-79
2021/03/22 03:48:25;;;;;;;16.58;8.27;;;-2.10;99.90;;;;;;5052055;28;20072;-79
2021/03/22 03:51:02;;;;;;;14.48;8.50;;;-2.10;99.90;;;;;;5053584;28;20050;-79
2021/03/22 03:53:28;;;;;;;19.02;12.35;;;-2.10;99.90;;;;;;5051799;28;20398;-78
2021/03/22 03:55:56;;;;;;;19.17;10.93;;;-2.20;99.90;;;;;;5053451;28;20025;-79
2021/03/22 03:58:22;;;;;;;19.25;10.38;;;-2.20;99.90;;;;;;5051715;28;20315;-79
2021/03/22 04:00:49;;;;;;;21.38;12.73;;;-2.20;99.90;;;;;;5052104;28;20649;-78
2021/03/22 04:03:31;;;;;;;24.25;11.43;;;-2.20;99.90;;;;;;5052109;28;20028;-79
2021/03/22 04:06:08;;;;;;;22.52;10.95;;;-2.30;99.90;;;;;;5052105;28;20044;-78
2021/03/22 04:08:38;;;;;;;16.25;9.20;;;-2.40;99.90;;;;;;5051977;28;20051;-78
2021/03/22 04:11:06;;;;;;;18.38;10.30;;;-2.50;99.90;;;;;;5052863;28;20025;-78
2021/03/22 04:13:32;;;;;;;23.35;11.00;;;-2.60;99.90;;;;;;5051757;28;20025;-78
2021/03/22 04:15:58;;;;;;;31.60;16.80;;;-2.60;99.90;;;;;;5051449;28;20021;-79
2021/03/22 04:18:24;;;;;;;40.00;18.40;;;-2.70;99.90;;;;;;5051936;28;20044;-79
2021/03/22 04:20:49;;;;;;;25.88;13.50;;;-2.80;99.90;;;;;;5051285;28;20058;-79
2021/03/22 04:23:15;;;;;;;25.08;12.57;;;-2.80;99.90;;;;;;5053040;28;20017;-82
2021/03/22 04:25:41;;;;;;;23.05;12.52;;;-2.90;99.90;;;;;;5053096;28;20021;-79
2021/03/22 04:28:07;;;;;;;34.70;14.10;;;-2.90;99.90;;;;;;5051605;28;20482;-80
2021/03/22 04:30:33;;;;;;;31.15;14.70;;;-3.00;99.90;;;;;;5051699;28;20436;-79
2021/03/22 04:32:58;;;;;;;30.27;13.32;;;-3.00;99.90;;;;;;5052947;28;20084;-78
2021/03/22 04:35:26;;;;;;;24.30;12.77;;;-3.10;99.90;;;;;;5051652;28;20046;-79
2021/03/22 04:37:52;;;;;;;29.20;12.32;;;-3.10;99.90;;;;;;5051650;28;20028;-79
2021/03/22 04:40:21;;;;;;;37.75;18.38;;;-3.10;99.90;;;;;;5052789;28;20382;-78
2021/03/22 04:42:47;;;;;;;51.33;20.25;;;-3.10;99.90;;;;;;5052935;28;20104;-79
2021/03/22 04:45:14;;;;;;;41.03;14.15;;;-3.10;99.90;;;;;;5050940;28;20112;-79
2021/03/22 04:47:40;;;;;;;32.08;15.80;;;-3.20;99.90;;;;;;5051397;28;20106;-79
2021/03/22 04:50:07;;;;;;;26.45;12.75;;;-3.20;99.90;;;;;;5051472;28;20498;-76
2021/03/22 04:52:32;;;;;;;39.92;14.80;;;-3.20;99.90;;;;;;5051520;28;20040;-76
2021/03/22 04:54:58;;;;;;;24.35;11.25;;;-3.20;99.90;;;;;;5050784;28;20075;-76
2021/03/22 04:57:32;;;;;;;24.63;12.00;;;-3.20;99.90;;;;;;5052742;28;20040;-77
2021/03/22 04:59:59;;;;;;;34.45;12.88;;;-3.20;99.90;;;;;;5051926;28;20452;-76
2021/03/22 05:02:25;;;;;;;34.08;15.70;;;-3.20;99.90;;;;;;5052558;28;20021;-77
2021/03/22 05:04:50;;;;;;;25.80;14.13;;;-3.10;99.90;;;;;;5050736;28;20501;-77
2021/03/22 05:07:17;;;;;;;25.40;13.02;;;-3.10;99.90;;;;;;5050656;28;20398;-76
2021/03/22 05:09:43;;;;;;;21.23;11.43;;;-3.10;99.90;;;;;;5051676;28;20037;-76
2021/03/22 05:12:11;;;;;;;20.75;10.15;;;-3.10;99.90;;;;;;5055469;28;20108;-76
2021/03/22 05:14:37;;;;;;;19.92;9.85;;;-3.00;99.90;;;;;;5056539;28;20033;-76
2021/03/22 05:17:03;;;;;;;33.58;14.50;;;-3.00;99.90;;;;;;5055109;28;20031;-76
2021/03/22 05:19:30;;;;;;;28.02;11.93;;;-3.00;99.90;;;;;;5056380;28;20086;-76
2021/03/22 05:21:57;;;;;;;28.95;12.07;;;-2.90;99.90;;;;;;5056461;28;20074;-77
2021/03/22 05:24:23;;;;;;;37.45;15.55;;;-2.80;99.90;;;;;;5055786;28;20028;-76
2021/03/22 05:26:49;;;;;;;36.97;18.48;;;-2.70;99.90;;;;;;5054514;28;20025;-76
2021/03/22 05:29:16;;;;;;;29.20;13.75;;;-2.70;99.90;;;;;;5056195;28;20120;-77
2021/03/22 05:31:41;;;;;;;47.13;28.80;;;-2.60;99.90;;;;;;5056330;28;20017;-77
2021/03/22 05:34:07;;;;;;;22.13;12.77;;;-2.60;99.90;;;;;;5056146;28;20021;-76
2021/03/22 05:36:33;;;;;;;95.07;53.15;;;-2.60;99.90;;;;;;5056056;28;20440;-77
2021/03/22 05:38:58;;;;;;;211.05;133.13;;;-2.60;99.90;;;;;;5054737;28;20025;-77
2021/03/22 05:41:26;;;;;;;138.05;70.78;;;-2.60;99.90;;;;;;5054891;28;20471;-77
2021/03/22 05:44:15;;;;;;;494.27;181.10;;;-2.60;99.90;;;;;;5054718;28;20067;-79
2021/03/22 05:46:46;;;;;;;94.85;32.90;;;-2.60;99.90;;;;;;5054464;28;20028;-79
2021/03/22 05:49:17;;;;;;;76.88;28.65;;;-2.50;99.90;;;;;;5055731;28;20128;-79
2021/03/22 05:52:02;;;;;;;356.80;114.03;;;-2.40;99.90;;;;;;5056014;28;20025;-79
2021/03/22 05:54:52;;;;;;;354.15;116.57;;;-2.30;99.90;;;;;;5054328;28;20063;-78
2021/03/22 05:58:05;;;;;;;177.40;55.92;;;-2.20;99.90;;;;;;5055813;28;20033;-79
2021/03/22 06:00:53;;;;;;;197.55;67.15;;;-2.00;99.90;;;;;;5036001;28;20394;-79
2021/03/22 06:03:38;;;;;;;61.63;24.80;;;-1.70;99.90;;;;;;5054393;28;20478;-79
2021/03/22 06:06:22;;;;;;;43.20;18.50;;;-1.60;99.80;;;;;;5055583;28;20480;-79
2021/03/22 06:08:52;;;;;;;44.65;17.48;;;-1.50;97.70;;;;;;5053763;28;20120;-79
2021/03/22 06:11:25;;;;;;;43.65;16.20;;;-1.30;95.60;;;;;;5053563;28;20481;-79
2021/03/22 06:13:59;;;;;;;47.97;18.45;;;-1.20;93.40;;;;;;5056185;28;20021;-77
2021/03/22 06:16:48;;;;;;;37.80;16.60;;;-1.10;92.20;;;;;;5053910;28;20021;-78
2021/03/22 06:19:18;;;;;;;16.98;10.38;;;-1.00;90.60;;;;;;5043755;28;20051;-79
2021/03/22 06:21:47;;;;;;;23.48;10.20;;;-0.80;89.40;;;;;;5041484;28;20022;-77
2021/03/22 06:24:19;;;;;;;24.45;10.73;;;-0.80;87.60;;;;;;5049849;28;20025;-75
2021/03/22 06:26:50;;;;;;;10.38;6.72;;;-0.70;87.00;;;;;;5051645;28;20037;-75
2021/03/22 06:29:31;;;;;;;19.42;9.60;;;-0.70;85.60;;;;;;5054696;28;20025;-75
2021/03/22 06:32:13;;;;;;;24.42;10.18;;;-0.50;84.80;;;;;;5051791;28;20433;-75
2021/03/22 06:34:52;;;;;;;17.63;7.83;;;-0.30;84.10;;;;;;5053911;28;20049;-75
2021/03/22 06:37:23;;;;;;;16.50;9.32;;;-0.40;81.60;;;;;;5054725;28;20021;-75
2021/03/22 06:40:04;;;;;;;19.23;9.95;;;-0.10;81.10;;;;;;5053805;28;20033;-74
2021/03/22 06:42:30;;;;;;;17.08;7.00;;;-0.10;79.30;;;;;;5053559;28;20025;-76
2021/03/22 06:44:55;;;;;;;16.10;7.80;;;-0.20;79.50;;;;;;5053589;28;20071;-77
2021/03/22 06:47:35;;;;;;;18.08;9.60;;;-0.10;79.90;;;;;;5053145;28;20376;-75
2021/03/22 06:50:27;;;;;;;20.88;9.68;;;-0.10;79.30;;;;;;5053323;28;20113;-76
2021/03/22 06:52:53;;;;;;;19.05;7.38;;;-0.20;77.90;;;;;;5054214;28;20502;-75
2021/03/22 06:55:41;;;;;;;15.68;6.53;;;-0.10;78.90;;;;;;5051163;28;20024;-75
2021/03/22 06:58:09;;;;;;;19.13;10.32;;;-0.10;77.30;;;;;;5049686;28;20021;-75
2021/03/22 07:00:35;;;;;;;26.33;11.93;;;0.10;77.10;;;;;;5052238;28;20063;-75
2021/03/22 07:03:19;;;;;;;18.77;8.27;;;0.30;74.90;;;;;;5050805;28;20414;-75
2021/03/22 07:05:44;;;;;;;42.70;18.00;;;0.30;72.80;;;;;;5049352;28;20107;-75
2021/03/22 07:08:19;;;;;;;23.88;9.77;;;0.40;73.00;;;;;;5052924;28;20452;-76
2021/03/22 07:11:09;;;;;;;12.93;6.35;;;0.50;72.30;;;;;;5053692;28;20017;-75
2021/03/22 07:13:35;;;;;;;13.45;6.93;;;0.50;72.50;;;;;;5050867;28;20108;-75
2021/03/22 07:16:15;;;;;;;16.58;6.75;;;0.60;70.70;;;;;;5052283;28;20475;-75
2021/03/22 07:18:40;;;;;;;13.25;6.45;;;0.60;70.70;;;;;;5051681;28;20017;-75
2021/03/22 07:21:13;;;;;;;18.80;8.20;;;0.70;69.90;;;;;;5052439;28;20112;-75
2021/03/22 07:23:44;;;;;;;23.17;10.38;;;0.90;70.00;;;;;;5049837;28;20067;-75
2021/03/22 07:26:29;;;;;;;20.08;8.77;;;0.90;67.40;;;;;;5052398;28;20025;-75
2021/03/22 07:29:06;;;;;;;9.55;4.18;;;1.00;67.50;;;;;;5053335;28;20037;-75
2021/03/22 07:32:03;;;;;;;14.75;5.53;;;1.10;67.20;;;;;;5051489;28;20029;-76
2021/03/22 07:34:45;;;;;;;15.65;7.32;;;0.90;66.40;;;;;;5036087;28;20372;-75
2021/03/22 07:37:17;;;;;;;12.57;6.10;;;1.10;66.80;;;;;;5053995;28;20100;-74
2021/03/22 07:40:06;;;;;;;18.23;8.05;;;1.10;66.60;;;;;;5053448;28;20058;-74
2021/03/22 07:42:36;;;;;;;21.73;10.38;;;1.10;65.90;;;;;;5050433;28;20115;-74
2021/03/22 07:45:20;;;;;;;19.67;8.55;;;1.20;64.60;;;;;;5052507;28;20021;-75
2021/03/22 07:48:14;;;;;;;29.42;11.65;;;1.30;65.50;;;;;;5051913;28;20044;-75
2021/03/22 07:51:11;;;;;;;13.93;5.72;;;1.70;64.40;;;;;;5051651;28;20060;-74
2021/03/22 07:53:56;;;;;;;10.30;4.28;;;1.70;64.50;;;;;;5052983;28;20025;-75
2021/03/22 07:56:47;;;;;;;6.47;2.80;;;2.00;62.90;;;;;;5053561;28;20023;-75
2021/03/22 07:59:41;;;;;;;10.35;4.35;;;2.00;60.60;;;;;;5048739;28;20103;-76
2021/03/22 08:02:46;;;;;;;9.68;5.07;;;1.90;60.50;;;;;;5030889;28;20060;-75
2021/03/22 08:05:30;;;;;;;8.32;3.50;;;2.20;59.40;;;;;;5033476;28;20068;-74
2021/03/22 08:08:15;;;;;;;6.80;3.40;;;2.30;59.00;;;;;;5040412;28;20435;-74
2021/03/22 08:10:49;;;;;;;13.63;6.38;;;2.40;58.40;;;;;;5052174;28;20033;-74
2021/03/22 08:13:33;;;;;;;9.75;4.82;;;2.40;58.70;;;;;;5052018;28;20021;-74
2021/03/22 08:16:11;;;;;;;7.05;4.22;;;2.40;57.90;;;;;;5052006;28;20021;-76
2021/03/22 08:18:43;;;;;;;5.65;3.47;;;2.50;57.60;;;;;;5053248;28;20017;-76
2021/03/22 08:21:21;;;;;;;3.60;2.50;;;2.50;57.40;;;;;;5033322;28;20025;-76
2021/03/22 08:23:56;;;;;;;7.25;3.67;;;2.50;56.50;;;;;;5048595;28;20036;-74
2021/03/22 08:26:27;;;;;;;3.83;2.45;;;2.30;56.20;;;;;;5051060;28;20071;-76
2021/03/22 08:29:25;;;;;;;5.05;2.45;;;2.50;56.00;;;;;;5051215;28;20033;-80
2021/03/22 08:31:57;;;;;;;3.38;2.47;;;2.50;55.60;;;;;;5049363;28;20112;-76
2021/03/22 08:34:25;;;;;;;9.93;5.13;;;2.60;55.60;;;;;;5052165;28;20028;-77
2021/03/22 08:37:12;;;;;;;8.88;2.85;;;2.70;55.60;;;;;;5051474;28;20055;-77
2021/03/22 08:39:49;;;;;;;16.52;5.68;;;2.80;53.80;;;;;;5052772;28;20032;-77
2021/03/22 08:42:28;;;;;;;7.97;4.13;;;2.60;54.20;;;;;;5042693;28;20493;-77
2021/03/22 08:45:17;;;;;;;8.15;4.53;;;2.60;53.70;;;;;;5042220;28;20382;-78
2021/03/22 08:47:55;;;;;;;7.35;4.10;;;2.70;53.60;;;;;;5039991;28;20037;-76
2021/03/22 08:50:30;;;;;;;6.90;3.20;;;2.50;52.10;;;;;;5044091;28;20026;-77
2021/03/22 08:52:57;;;;;;;10.32;3.72;;;2.60;53.00;;;;;;5044950;28;20020;-77
2021/03/22 08:55:28;;;;;;;8.57;3.30;;;2.60;53.40;;;;;;5046482;28;20449;-76
2021/03/22 08:57:58;;;;;;;9.98;5.07;;;2.40;52.80;;;;;;5048690;28;20021;-77
2021/03/22 09:00:41;;;;;;;7.55;4.07;;;2.60;53.40;;;;;;5046443;28;20028;-76
2021/03/22 09:03:16;;;;;;;7.70;3.70;;;2.50;52.70;;;;;;5034538;28;20022;-76
2021/03/22 09:06:05;;;;;;;11.57;3.28;;;2.70;53.20;;;;;;5050793;28;20027;-77
2021/03/22 09:08:40;;;;;;;5.38;2.17;;;3.10;53.50;;;;;;5051122;28;20037;-77
2021/03/22 09:11:15;;;;;;;3.40;1.90;;;2.90;52.20;;;;;;5051364;28;20429;-78
2021/03/22 09:13:59;;;;;;;4.22;2.80;;;2.80;51.60;;;;;;5050595;28;20031;-77
2021/03/22 09:16:25;;;;;;;7.22;3.08;;;2.80;51.10;;;;;;5051083;28;20111;-77
2021/03/22 09:19:45;;;;;;;4.82;2.00;;;2.60;51.10;;;;;;5052508;28;20068;-80
2021/03/22 09:22:11;;;;;;;8.35;3.33;;;2.80;50.40;;;;;;5043470;28;20032;-77
2021/03/22 09:27:24;;;;;;;2.55;2.05;;;3.10;49.20;;;;;;5046187;28;20037;-78
2021/03/22 09:30:13;;;;;;;18.42;6.50;;;3.10;49.10;;;;;;5036317;28;20041;-78
2021/03/22 09:32:38;;;;;;;4.13;2.70;;;3.30;49.40;;;;;;5046797;28;20033;-78
2021/03/22 09:35:13;;;;;;;2.65;2.40;;;3.30;49.00;;;;;;5049798;28;20021;-79
2021/03/22 09:37:52;;;;;;;7.22;4.30;;;2.90;49.60;;;;;;5050907;28;20039;-79
2021/03/22 09:40:21;;;;;;;11.10;6.65;;;3.00;50.20;;;;;;5049384;28;20040;-79
2021/03/22 09:43:08;;;;;;;3.78;2.03;;;3.00;48.80;;;;;;5049413;28;20037;-78
2021/03/22 09:45:36;;;;;;;3.53;2.10;;;3.00;46.10;;;;;;5049797;28;20033;-79
2021/03/22 09:48:24;;;;;;;3.13;1.60;;;3.20;46.50;;;;;;5050028;28;20033;-79
2021/03/22 09:51:12;;;;;;;6.97;1.85;;;3.00;46.40;;;;;;5045464;28;20037;-79
2021/03/22 09:54:02;;;;;;;1.50;1.40;;;3.30;47.90;;;;;;5050331;28;20033;-78
2021/03/22 09:56:30;;;;;;;4.70;2.72;;;3.70;47.20;;;;;;5051738;28;20028;-79
2021/03/22 09:59:38;;;;;;;6.32;2.90;;;3.80;47.70;;;;;;5055259;28;20416;-78
2021/03/22 10:02:38;;;;;;;5.80;2.35;;;4.00;49.60;;;;;;5054799;28;20020;-79
2021/03/22 10:05:16;;;;;;;2.47;1.58;;;4.20;46.60;;;;;;5053736;28;20059;-78
2021/03/22 10:07:49;;;;;;;3.55;2.00;;;4.00;43.40;;;;;;5055206;28;20045;-77
2021/03/22 10:10:18;;;;;;;;;;;4.30;42.50;;;;;;5056040;28;20056;-78
2021/03/22 10:12:52;;;;;;;4.95;1.80;;;4.10;43.00;;;;;;5054008;28;19904;-77
2021/03/22 10:15:23;;;;;;;5.40;2.65;;;4.00;44.20;;;;;;5051283;28;20017;-78
2021/03/22 10:18:00;;;;;;;7.95;3.08;;;3.90;43.20;;;;;;5045442;28;20079;-78
2021/03/22 10:20:38;;;;;;;5.40;4.90;;;3.80;43.50;;;;;;5052592;28;20021;-77
2021/03/22 10:23:27;;;;;;;3.25;2.38;;;3.90;44.00;;;;;;5053123;28;20083;-77
2021/03/22 10:26:05;;;;;;;3.33;2.33;;;3.70;42.80;;;;;;5054469;28;20490;-77
2021/03/22 10:28:31;;;;;;;2.92;2.30;;;3.70;42.90;;;;;;5054440;28;20029;-77
2021/03/22 10:31:15;;;;;;;4.47;2.30;;;3.60;42.40;;;;;;5047225;28;20022;-77
2021/03/22 10:34:01;;;;;;;3.67;1.52;;;3.60;41.40;;;;;;5048823;28;20115;-77
2021/03/22 10:36:36;;;;;;;5.88;2.38;;;3.50;39.90;;;;;;5040719;28;20017;-77
2021/03/22 10:39:05;;;;;;;4.50;2.47;;;3.40;40.00;;;;;;5053409;28;20055;-78
2021/03/22 10:41:37;;;;;;;2.88;1.38;;;3.60;39.80;;;;;;5055101;28;20013;-77
2021/03/22 10:44:25;;;;;;;2.42;1.70;;;3.80;40.30;;;;;;5053234;28;20478;-77
2021/03/22 10:47:12;;;;;;;10.90;7.07;;;4.00;41.00;;;;;;5053394;28;20033;-78
2021/03/22 10:49:38;;;;;;;1.33;1.17;;;4.10;39.70;;;;;;5053436;28;20040;-78
2021/03/22 10:52:22;;;;;;;4.28;2.58;;;4.20;39.90;;;;;;5053379;28;20044;-77
2021/03/22 10:54:49;;;;;;;4.68;2.58;;;4.30;40.00;;;;;;5053520;28;20021;-76
2021/03/22 10:57:31;;;;;;;2.55;2.17;;;4.40;40.10;;;;;;5053375;28;20021;-78
2021/03/22 11:00:01;;;;;;;1.65;1.42;;;4.40;40.20;;;;;;5053108;28;20033;-78
2021/03/22 11:02:54;;;;;;;1.80;1.60;;;4.30;39.60;;;;;;5053448;28;20036;-78
2021/03/22 11:05:27;;;;;;;6.95;3.08;;;4.40;40.30;;;;;;5052764;28;20037;-77
2021/03/22 11:07:57;;;;;;;;;;;4.10;40.20;;;;;;5054951;28;20099;-78
2021/03/22 11:10:24;;;;;;;5.50;2.08;;;3.90;40.60;;;;;;5053190;28;20339;-77
2021/03/22 11:12:51;;;;;;;2.38;1.90;;;4.00;40.20;;;;;;5054467;28;20040;-79
2021/03/22 11:15:33;;;;;;;2.05;1.67;;;4.00;39.10;;;;;;5049283;28;20509;-77
2021/03/22 11:18:01;;;;;;;9.50;3.97;;;4.10;39.00;;;;;;5069342;28;20040;-86
2021/03/22 11:20:30;;;;;;;2.55;2.15;;;4.20;39.60;;;;;;5053390;28;20056;-78
2021/03/22 11:23:25;;;;;;;3.80;2.53;;;4.50;39.60;;;;;;5054045;28;20017;-81
2021/03/22 11:25:52;;;;;;;5.18;3.28;;;4.70;40.60;;;;;;5053114;28;20058;-80
2021/03/22 11:28:20;;;;;;;6.35;2.95;;;4.30;39.70;;;;;;5053161;28;20069;-79
2021/03/22 11:30:49;;;;;;;6.05;3.65;;;4.10;39.60;;;;;;5051382;28;20399;-79
2021/03/22 11:33:26;;;;;;;7.45;4.05;;;4.10;40.30;;;;;;5052921;28;20108;-79
2021/03/22 11:36:17;;;;;;;5.50;2.63;;;4.00;40.80;;;;;;5051707;28;20067;-79
2021/03/22 11:38:46;;;;;;;3.55;1.60;;;3.90;38.90;;;;;;5050569;28;20027;-78
2021/03/22 11:41:34;;;;;;;7.03;1.92;;;3.80;38.20;;;;;;5052668;28;20029;-77
2021/03/22 11:44:20;;;;;;;4.07;2.05;;;3.70;38.60;;;;;;5052738;28;20033;-76
2021/03/22 11:46:49;;;;;;;4.22;2.90;;;3.70;39.00;;;;;;5049968;28;20593;-75
2021/03/22 11:49:36;;;;;;;3.00;2.30;;;3.70;40.40;;;;;;5046182;28;20043;-77
2021/03/22 11:52:03;;;;;;;5.20;2.58;;;3.80;41.90;;;;;;5034614;28;20037;-76
2021/03/22 11:54:31;;;;;;;14.20;5.28;;;3.90;42.70;;;;;;5051749;28;20029;-77
2021/03/22 11:57:02;;;;;;;4.03;2.40;;;4.00;42.90;;;;;;5049598;28;20025;-77
2021/03/22 11:59:28;;;;;;;2.03;1.60;;;4.10;42.40;;;;;;5051618;28;20028;-76
2021/03/22 12:02:12;;;;;;;8.90;4.70;;;4.30;43.00;;;;;;5051519;28;20025;-77
2021/03/22 12:04:38;;;;;;;3.88;2.65;;;4.20;42.20;;;;;;5050239;28;20033;-77
2021/03/22 12:07:10;;;;;;;10.40;3.67;;;4.30;41.30;;;;;;5051106;28;20086;-77
2021/03/22 12:09:40;;;;;;;11.27;6.00;;;4.40;41.10;;;;;;5051223;28;20086;-77
2021/03/22 12:12:13;;;;;;;10.15;6.55;;;4.40;40.80;;;;;;5051805;28;20374;-76
2021/03/22 12:14:39;;;;;;;3.63;2.45;;;4.30;40.60;;;;;;5051106;28;20055;-76
2021/03/22 12:17:21;;;;;;;4.95;2.65;;;4.10;40.80;;;;;;5051935;28;20060;-75
2021/03/22 12:19:47;;;;;;;7.03;3.33;;;3.90;40.90;;;;;;5051613;28;20055;-75
2021/03/22 12:22:15;;;;;;;6.88;5.05;;;3.80;41.30;;;;;;5053152;28;20024;-77
2021/03/22 12:24:41;;;;;;;4.10;2.60;;;3.90;42.70;;;;;;5051872;28;20352;-75
2021/03/22 12:27:12;;;;;;;5.40;3.30;;;3.70;43.20;;;;;;5051761;28;20024;-75
2021/03/22 12:29:38;;;;;;;10.70;6.10;;;3.80;43.70;;;;;;5051673;28;20124;-76
2021/03/22 12:32:05;;;;;;;7.03;4.53;;;3.70;44.10;;;;;;5051067;28;20064;-76
2021/03/22 12:34:31;;;;;;;4.55;3.42;;;3.90;43.90;;;;;;5051400;28;20535;-77
2021/03/22 12:36:57;;;;;;;6.65;2.63;;;3.80;43.60;;;;;;5051662;28;20017;-77
2021/03/22 12:39:25;;;;;;;3.22;1.63;;;3.80;43.20;;;;;;5051205;28;20023;-76
2021/03/22 12:41:56;;;;;;;5.65;3.17;;;3.80;42.60;;;;;;5051611;28;20395;-76
2021/03/22 12:44:22;;;;;;;4.88;3.03;;;3.70;42.30;;;;;;5051577;28;20033;-76
2021/03/22 12:46:48;;;;;;;8.50;5.07;;;3.70;42.50;;;;;;5051619;28;20032;-77
2021/03/22 12:49:17;;;;;;;7.68;4.30;;;3.70;43.00;;;;;;5051270;28;20367;-76
2021/03/22 12:51:43;;;;;;;8.73;4.65;;;3.70;43.00;;;;;;5052895;28;20024;-76
2021/03/22 12:54:10;;;;;;;3.83;3.47;;;3.70;42.90;;;;;;5051428;28;20402;-76
2021/03/22 12:56:36;;;;;;;7.55;3.75;;;3.60;42.70;;;;;;5051528;28;20478;-77
2021/03/22 12:59:02;;;;;;;3.38;1.98;;;3.70;42.50;;;;;;5051062;28;20037;-76
2021/03/22 13:01:27;;;;;;;11.70;5.22;;;4.00;42.60;;;;;;5051237;28;20028;-76
2021/03/22 13:03:53;;;;;;;6.22;3.60;;;4.20;42.70;;;;;;5051389;28;20041;-76
2021/03/22 13:06:20;;;;;;;5.45;3.88;;;4.10;41.70;;;;;;5052601;28;20471;-79
2021/03/22 13:08:46;;;;;;;4.72;3.67;;;4.10;40.80;;;;;;5051280;28;20445;-77
2021/03/22 13:11:14;;;;;;;7.32;3.67;;;4.10;40.60;;;;;;5051062;28;20021;-80
2021/03/22 13:13:40;;;;;;;4.90;3.40;;;4.10;41.00;;;;;;5050428;28;20497;-77
2021/03/22 13:16:06;;;;;;;2.90;2.67;;;4.20;41.20;;;;;;5045737;28;20021;-78
2021/03/22 13:18:34;;;;;;;8.00;5.32;;;4.20;40.50;;;;;;5046294;28;20117;-78